Time;durP1;ratioP1;P1;durP2;ratioP2;P2;SDS_P1;SDS_P2;PMS_P1;PMS_P2;Temp;Humidity;BMP_temperature;BMP_pressure;BME280_temperature;BME280_humidity;BME280_pressure;Samples;Min_cycle;Max_cycle;Signal;HPM_P1;HPM_P2
2023/01/23 00:02:26;;;;;;;5.87;4.30;;;;;;;;;;4983197;28;20581;-63
2023/01/23 00:04:53;;;;;;;5.77;3.90;;;;;;;;;;4984654;28;20927;-62
2023/01/23 00:07:19;;;;;;;8.43;4.00;;;;;;;;;;4983144;28;20506;-62
2023/01/23 00:09:46;;;;;;;8.53;4.03;;;;;;;;;;4984978;28;20463;-64
2023/01/23 00:12:30;;;;;;;5.73;3.67;;;;;;;;;;4981792;28;20447;-66
2023/01/23 00:14:57;;;;;;;5.97;3.37;;;;;;;;;;4985089;28;20505;-64
2023/01/23 00:17:25;;;;;;;6.00;3.60;;;;;;;;;;4984109;28;20755;-63
2023/01/23 00:19:53;;;;;;;4.00;3.10;;;;;;;;;;4984805;28;20527;-64
2023/01/23 00:22:19;;;;;;;5.47;3.30;;;;;;;;;;4968702;28;20570;-64
2023/01/23 00:25:04;;;;;;;5.00;3.10;;;;;;;;;;4965943;28;20452;-64
2023/01/23 00:27:30;;;;;;;5.13;3.57;;;;;;;;;;4965224;28;20849;-64
2023/01/23 00:30:15;;;;;;;5.63;3.47;;;;;;;;;;4965770;28;20486;-64
2023/01/23 00:32:41;;;;;;;5.37;3.47;;;;;;;;;;4978044;28;20471;-65
2023/01/23 00:35:08;;;;;;;4.43;2.90;;;;;;;;;;4984443;28;20474;-64
2023/01/23 00:37:35;;;;;;;4.60;3.13;;;;;;;;;;4982857;28;21004;-64
2023/01/23 00:40:01;;;;;;;4.57;3.27;;;;;;;;;;4984271;28;20461;-64
2023/01/23 00:42:29;;;;;;;5.60;3.50;;;;;;;;;;4981397;28;20545;-65
2023/01/23 00:44:58;;;;;;;5.90;3.93;;;;;;;;;;4982446;28;20477;-65
2023/01/23 00:47:25;;;;;;;7.10;3.90;;;;;;;;;;4985220;28;20490;-64
2023/01/23 00:50:09;;;;;;;8.07;3.63;;;;;;;;;;4982250;28;20529;-65
2023/01/23 00:52:36;;;;;;;5.97;3.30;;;;;;;;;;4984838;28;20475;-64
2023/01/23 00:55:03;;;;;;;7.00;3.57;;;;;;;;;;4981418;28;20466;-64
2023/01/23 00:57:30;;;;;;;5.63;3.67;;;;;;;;;;4965424;28;20988;-65
2023/01/23 00:59:57;;;;;;;5.97;3.80;;;;;;;;;;4965842;28;20467;-64
2023/01/23 01:02:24;;;;;;;5.53;3.40;;;;;;;;;;4967958;28;20447;-65
2023/01/23 01:04:51;;;;;;;4.53;3.30;;;;;;;;;;4980661;28;20521;-64
2023/01/23 01:07:18;;;;;;;5.63;3.13;;;;;;;;;;4966853;28;20501;-64
2023/01/23 01:09:46;;;;;;;5.13;3.30;;;;;;;;;;4980672;28;20474;-64
2023/01/23 01:12:15;;;;;;;5.73;3.23;;;;;;;;;;4981812;28;20479;-64
2023/01/23 01:14:41;;;;;;;6.37;3.70;;;;;;;;;;4981075;28;20562;-65
2023/01/23 01:17:08;;;;;;;4.87;3.43;;;;;;;;;;4968067;28;20458;-64
2023/01/23 01:19:35;;;;;;;4.73;3.40;;;;;;;;;;4962988;28;20475;-65
2023/01/23 01:22:01;;;;;;;5.40;3.57;;;;;;;;;;4982095;28;21126;-64
2023/01/23 01:24:28;;;;;;;6.97;3.70;;;;;;;;;;4966096;28;20470;-64
2023/01/23 01:26:55;;;;;;;6.27;3.40;;;;;;;;;;4981368;28;20475;-64
2023/01/23 01:29:21;;;;;;;4.80;3.20;;;;;;;;;;4984256;28;20474;-64
2023/01/23 01:31:48;;;;;;;4.60;3.20;;;;;;;;;;4983600;28;20541;-64
2023/01/23 01:34:15;;;;;;;6.23;4.27;;;;;;;;;;4983821;28;20526;-64
2023/01/23 01:36:41;;;;;;;6.37;3.60;;;;;;;;;;4980020;28;20470;-64
2023/01/23 01:39:08;;;;;;;6.13;3.57;;;;;;;;;;4981616;28;20467;-64
2023/01/23 01:41:35;;;;;;;5.27;3.73;;;;;;;;;;4980303;28;20468;-64
2023/01/23 02:19:00;;;;;;;6.43;4.00;;;;;;;;;;4979769;28;20877;-64
2023/01/23 02:21:44;;;;;;;8.60;4.73;;;;;;;;;;4983989;28;20537;-64
2023/01/23 02:24:14;;;;;;;7.30;4.23;;;;;;;;;;4964356;28;20501;-64
2023/01/23 02:26:41;;;;;;;8.27;4.50;;;;;;;;;;4982093;28;20467;-64
2023/01/23 02:29:09;;;;;;;6.47;4.17;;;;;;;;;;4962783;28;20495;-64
2023/01/23 02:31:51;;;;;;;8.03;5.00;;;;;;;;;;4962502;28;20480;-64
2023/01/23 02:34:21;;;;;;;7.73;4.80;;;;;;;;;;4976805;28;20486;-64
2023/01/23 02:36:49;;;;;;;8.60;4.70;;;;;;;;;;4982494;28;20450;-64
2023/01/23 02:39:17;;;;;;;11.43;5.33;;;;;;;;;;4964794;28;20468;-64
2023/01/23 02:42:01;;;;;;;9.27;4.77;;;;;;;;;;4961593;28;20482;-64
2023/01/23 02:44:40;;;;;;;8.80;4.57;;;;;;;;;;4937104;28;20453;-64
2023/01/23 02:47:24;;;;;;;11.23;5.47;;;;;;;;;;4982492;28;20535;-64
2023/01/23 02:49:54;;;;;;;11.77;5.80;;;;;;;;;;4981140;28;20815;-64
2023/01/23 02:52:22;;;;;;;10.23;5.83;;;;;;;;;;4981614;28;20466;-65
2023/01/23 02:54:49;;;;;;;16.77;8.53;;;;;;;;;;4987229;28;20548;-64
2023/01/23 02:57:15;;;;;;;11.33;6.07;;;;;;;;;;4986073;28;20453;-64
2023/01/23 03:02:30;;;;;;;9.67;5.10;;;;;;;;;;4968466;28;20468;-64
2023/01/23 03:05:14;;;;;;;6.97;4.43;;;;;;;;;;4968217;28;20935;-64
2023/01/23 03:07:41;;;;;;;6.60;4.30;;;;;;;;;;4965948;28;20515;-64
2023/01/23 03:10:09;;;;;;;6.73;3.80;;;;;;;;;;4982726;28;20969;-64
2023/01/23 03:12:42;;;;;;;6.53;3.97;;;;;;;;;;4967220;28;20478;-64
2023/01/23 03:15:26;;;;;;;6.33;3.93;;;;;;;;;;4983835;28;20459;-64
2023/01/23 03:17:54;;;;;;;5.70;3.80;;;;;;;;;;4986134;28;20540;-64
2023/01/23 03:20:22;;;;;;;6.50;4.30;;;;;;;;;;4983402;28;20867;-64
2023/01/23 03:22:49;;;;;;;6.87;4.53;;;;;;;;;;4987595;28;20529;-64
2023/01/23 03:25:16;;;;;;;7.20;4.57;;;;;;;;;;4984594;28;20293;-64
2023/01/23 03:27:42;;;;;;;6.73;4.40;;;;;;;;;;4985041;28;20462;-64
2023/01/23 03:30:14;;;;;;;6.60;4.60;;;;;;;;;;4983549;28;20470;-64
2023/01/23 03:32:41;;;;;;;7.30;4.80;;;;;;;;;;4983775;28;20598;-64
2023/01/23 03:35:19;;;;;;;7.37;4.70;;;;;;;;;;4969886;28;20459;-64
2023/01/23 03:37:47;;;;;;;6.50;4.27;;;;;;;;;;4969051;28;20459;-64
2023/01/23 03:43:03;;;;;;;6.73;4.13;;;;;;;;;;4984867;28;20461;-64
2023/01/23 03:45:31;;;;;;;8.03;4.63;;;;;;;;;;4928997;28;20520;-64
2023/01/23 03:47:58;;;;;;;6.83;4.80;;;;;;;;;;4950409;28;20551;-64
2023/01/23 03:50:24;;;;;;;6.27;4.37;;;;;;;;;;4978521;28;20470;-64
2023/01/23 03:52:51;;;;;;;7.87;4.63;;;;;;;;;;4986000;28;20487;-64
2023/01/23 03:55:18;;;;;;;8.70;4.87;;;;;;;;;;4982378;28;20464;-65
2023/01/23 03:57:45;;;;;;;7.77;4.63;;;;;;;;;;4986752;28;21238;-64
2023/01/23 04:00:16;;;;;;;7.07;4.83;;;;;;;;;;4984325;28;20531;-64
2023/01/23 04:02:51;;;;;;;9.07;5.37;;;;;;;;;;4984111;28;20447;-64
2023/01/23 04:05:19;;;;;;;9.20;5.27;;;;;;;;;;4967001;28;20479;-66
2023/01/23 04:07:45;;;;;;;10.97;5.67;;;;;;;;;;4983970;28;21023;-65
2023/01/23 04:10:13;;;;;;;9.80;5.33;;;;;;;;;;4982476;28;20957;-64
2023/01/23 04:12:41;;;;;;;7.97;5.07;;;;;;;;;;4986241;28;20610;-64
2023/01/23 04:15:08;;;;;;;7.17;4.80;;;;;;;;;;4983552;28;20463;-64
2023/01/23 04:17:35;;;;;;;7.30;4.13;;;;;;;;;;4967045;28;21258;-65
2023/01/23 04:20:22;;;;;;;6.17;4.10;;;;;;;;;;4968631;28;20942;-64
2023/01/23 04:22:50;;;;;;;5.80;3.73;;;;;;;;;;4983162;28;20459;-64
2023/01/23 04:25:17;;;;;;;5.57;4.03;;;;;;;;;;4968722;28;20857;-64
2023/01/23 04:27:45;;;;;;;4.73;3.30;;;;;;;;;;4982331;28;20868;-64
2023/01/23 04:30:12;;;;;;;7.90;4.03;;;;;;;;;;4982153;28;20467;-64
2023/01/23 04:32:39;;;;;;;7.30;4.13;;;;;;;;;;4982740;28;20554;-64
2023/01/23 04:35:07;;;;;;;7.67;3.90;;;;;;;;;;4983404;28;20445;-66
2023/01/23 04:37:36;;;;;;;7.50;4.43;;;;;;;;;;4990174;28;20470;-63
2023/01/23 04:40:03;;;;;;;9.13;4.30;;;;;;;;;;4965786;28;21040;-64
2023/01/23 04:42:39;;;;;;;15.93;6.73;;;;;;;;;;4965710;28;20462;-64
2023/01/23 04:45:33;;;;;;;18.87;7.90;;;;;;;;;;4982642;28;20460;-64
2023/01/23 04:48:35;;;;;;;6.87;3.90;;;;;;;;;;4940460;28;20472;-64
2023/01/23 04:51:03;;;;;;;7.33;3.83;;;;;;;;;;4958405;28;20471;-64
2023/01/23 04:53:30;;;;;;;6.83;4.03;;;;;;;;;;4969639;28;20467;-64
2023/01/23 04:56:00;;;;;;;6.97;4.50;;;;;;;;;;4985198;28;20978;-63
2023/01/23 04:58:26;;;;;;;7.60;4.70;;;;;;;;;;4980027;28;20576;-64
2023/01/23 05:01:03;;;;;;;4.90;3.10;;;;;;;;;;4966634;28;20849;-64
2023/01/23 05:03:33;;;;;;;9.03;4.90;;;;;;;;;;4978415;28;20472;-63
2023/01/23 05:06:00;;;;;;;10.23;6.27;;;;;;;;;;4952693;28;20456;-65
2023/01/23 05:08:27;;;;;;;10.87;5.43;;;;;;;;;;4984675;28;20478;-66
2023/01/23 05:11:07;;;;;;;7.73;5.07;;;;;;;;;;4958518;28;20519;-65
2023/01/23 05:13:34;;;;;;;9.03;5.40;;;;;;;;;;4978843;28;20482;-65
2023/01/23 05:16:01;;;;;;;8.67;5.47;;;;;;;;;;4962361;28;20463;-65
2023/01/23 05:18:35;;;;;;;14.40;6.50;;;;;;;;;;4957731;28;20463;-65
2023/01/23 05:21:19;;;;;;;16.10;7.37;;;;;;;;;;4961222;28;20455;-64
2023/01/23 05:23:45;;;;;;;25.10;10.70;;;;;;;;;;4962531;28;20854;-64
2023/01/23 05:26:14;;;;;;;23.57;10.17;;;;;;;;;;4967908;28;20460;-64
2023/01/23 05:28:41;;;;;;;18.63;9.07;;;;;;;;;;4962444;28;20459;-65
2023/01/23 05:31:08;;;;;;;30.53;10.20;;;;;;;;;;4979219;28;20630;-66
2023/01/23 05:33:40;;;;;;;26.97;10.60;;;;;;;;;;4959001;28;20472;-65
2023/01/23 05:36:07;;;;;;;31.87;11.53;;;;;;;;;;4960537;28;20456;-64
2023/01/23 05:38:35;;;;;;;30.13;10.23;;;;;;;;;;4977052;28;20493;-64
2023/01/23 05:41:20;;;;;;;27.60;10.33;;;;;;;;;;4962399;28;20447;-66
2023/01/23 05:44:08;;;;;;;22.43;8.43;;;;;;;;;;4978247;28;20520;-65
2023/01/23 05:46:46;;;;;;;8.07;5.00;;;;;;;;;;4960637;28;20451;-64
2023/01/23 05:49:13;;;;;;;5.47;4.00;;;;;;;;;;4971666;28;20541;-65
2023/01/23 05:51:58;;;;;;;7.20;4.63;;;;;;;;;;4972127;28;20563;-64
2023/01/23 05:54:25;;;;;;;10.70;5.40;;;;;;;;;;4979984;28;20447;-64
2023/01/23 05:56:53;;;;;;;8.17;5.43;;;;;;;;;;4958395;28;20483;-64
2023/01/23 05:59:38;;;;;;;11.03;5.80;;;;;;;;;;4979546;28;20472;-63
2023/01/23 06:02:41;;;;;;;12.00;7.13;;;;;;;;;;4967383;28;20470;-64
2023/01/23 06:05:38;;;;;;;12.87;7.20;;;;;;;;;;4933886;28;20456;-64
2023/01/23 06:08:11;;;;;;;16.47;9.30;;;;;;;;;;4959523;28;20467;-62
2023/01/23 06:10:40;;;;;;;18.63;8.83;;;;;;;;;;4959977;28;20628;-65
2023/01/23 06:13:07;;;;;;;16.60;8.77;;;;;;;;;;4962921;28;20986;-65
2023/01/23 06:15:35;;;;;;;14.23;7.87;;;;;;;;;;4959290;28;20597;-65
2023/01/23 06:18:07;;;;;;;10.97;7.07;;;;;;;;;;4944401;28;20973;-64
2023/01/23 06:20:34;;;;;;;11.57;7.57;;;;;;;;;;4959464;28;21263;-65
2023/01/23 06:23:01;;;;;;;11.53;6.90;;;;;;;;;;4960070;28;20462;-64
2023/01/23 06:25:28;;;;;;;10.87;6.80;;;;;;;;;;4957662;28;20554;-63
2023/01/23 06:28:12;;;;;;;9.53;6.50;;;;;;;;;;4977228;28;20548;-63
2023/01/23 06:30:39;;;;;;;10.00;6.33;;;;;;;;;;4955792;28;20468;-64
2023/01/23 06:33:17;;;;;;;7.80;4.80;;;;;;;;;;4976625;28;21044;-64
2023/01/23 06:35:44;;;;;;;8.03;5.10;;;;;;;;;;4959613;28;20477;-64
2023/01/23 06:38:29;;;;;;;9.20;4.53;;;;;;;;;;4977565;28;20542;-64
2023/01/23 06:41:02;;;;;;;7.17;4.90;;;;;;;;;;4956772;28;20459;-64
2023/01/23 06:43:33;;;;;;;7.17;5.10;;;;;;;;;;4977021;28;21013;-65
2023/01/23 06:46:01;;;;;;;6.50;4.80;;;;;;;;;;4951085;28;20478;-65
2023/01/23 06:48:29;;;;;;;7.87;5.00;;;;;;;;;;4962051;28;20495;-64
2023/01/23 06:50:58;;;;;;;7.17;4.87;;;;;;;;;;4960795;28;21283;-64
2023/01/23 06:53:26;;;;;;;7.50;5.20;;;;;;;;;;4958814;28;20478;-64
2023/01/23 06:55:57;;;;;;;6.93;4.60;;;;;;;;;;4957257;28;20235;-64
2023/01/23 06:58:26;;;;;;;7.87;5.17;;;;;;;;;;4949160;28;20448;-65
2023/01/23 07:00:53;;;;;;;7.50;5.00;;;;;;;;;;4968496;28;21267;-64
2023/01/23 07:03:39;;;;;;;7.43;4.77;;;;;;;;;;4977244;28;20489;-64
2023/01/23 07:06:07;;;;;;;8.07;5.43;;;;;;;;;;4966274;28;20455;-64
2023/01/23 07:08:33;;;;;;;8.40;5.67;;;;;;;;;;4977979;28;20822;-64
2023/01/23 07:11:01;;;;;;;9.37;6.30;;;;;;;;;;4958377;28;20471;-64
2023/01/23 07:13:29;;;;;;;8.17;5.33;;;;;;;;;;4960521;28;20464;-64
2023/01/23 07:15:56;;;;;;;8.80;5.57;;;;;;;;;;4984699;28;20595;-63
2023/01/23 07:18:24;;;;;;;8.33;5.50;;;;;;;;;;4975879;28;20462;-63
2023/01/23 07:20:50;;;;;;;16.47;7.87;;;;;;;;;;4974794;28;21049;-64
2023/01/23 07:23:17;;;;;;;14.20;7.10;;;;;;;;;;4972663;28;20519;-64
2023/01/23 07:25:44;;;;;;;17.17;8.27;;;;;;;;;;4978960;28;20542;-63
2023/01/23 07:28:10;;;;;;;17.00;8.50;;;;;;;;;;4966249;28;20597;-63
2023/01/23 07:30:37;;;;;;;12.63;6.83;;;;;;;;;;4972674;28;21067;-63
2023/01/23 07:33:04;;;;;;;10.67;5.70;;;;;;;;;;4969801;28;20471;-63
2023/01/23 07:35:31;;;;;;;12.50;7.03;;;;;;;;;;4978566;28;20533;-63
2023/01/23 07:37:57;;;;;;;17.33;8.87;;;;;;;;;;4972443;28;20463;-64
2023/01/23 07:40:24;;;;;;;8.17;5.10;;;;;;;;;;4979709;28;20565;-64
2023/01/23 07:42:51;;;;;;;13.63;7.23;;;;;;;;;;4979598;28;20459;-64
2023/01/23 07:45:17;;;;;;;15.20;8.23;;;;;;;;;;4961885;28;20474;-63
2023/01/23 07:47:44;;;;;;;21.63;9.57;;;;;;;;;;4978660;28;20603;-63
2023/01/23 07:50:11;;;;;;;10.67;6.00;;;;;;;;;;4984576;28;20470;-63
2023/01/23 07:52:38;;;;;;;11.63;6.10;;;;;;;;;;4980470;28;20510;-63
2023/01/23 07:55:05;;;;;;;6.23;4.20;;;;;;;;;;4979145;28;20459;-64
2023/01/23 07:57:32;;;;;;;7.13;4.73;;;;;;;;;;4974348;28;20565;-65
2023/01/23 08:00:00;;;;;;;7.00;4.80;;;;;;;;;;4978954;28;20477;-64
2023/01/23 08:02:27;;;;;;;5.53;4.10;;;;;;;;;;4985929;28;20545;-64
2023/01/23 08:04:53;;;;;;;6.43;3.83;;;;;;;;;;4983654;28;20462;-64
2023/01/23 08:07:20;;;;;;;5.63;4.23;;;;;;;;;;4985789;28;20594;-62
2023/01/23 08:09:46;;;;;;;6.80;4.13;;;;;;;;;;4983457;28;20471;-62
2023/01/23 08:12:13;;;;;;;6.53;4.33;;;;;;;;;;4984123;28;20521;-62
2023/01/23 08:14:40;;;;;;;6.87;4.50;;;;;;;;;;4983849;28;20821;-62
2023/01/23 08:17:06;;;;;;;7.93;4.60;;;;;;;;;;4968791;28;20572;-62
2023/01/23 08:19:33;;;;;;;7.50;5.17;;;;;;;;;;4970054;28;20455;-62
2023/01/23 08:21:59;;;;;;;6.33;4.80;;;;;;;;;;4979277;28;20471;-62
2023/01/23 08:24:26;;;;;;;7.50;5.30;;;;;;;;;;4983619;28;20486;-63
2023/01/23 08:27:10;;;;;;;5.93;4.33;;;;;;;;;;4975467;28;20452;-63
2023/01/23 08:29:38;;;;;;;9.33;4.67;;;;;;;;;;4985374;28;20876;-62
2023/01/23 08:32:23;;;;;;;10.17;5.20;;;;;;;;;;4969079;28;20450;-62
2023/01/23 08:34:50;;;;;;;6.67;4.33;;;;;;;;;;4970363;28;20981;-62
2023/01/23 08:37:17;;;;;;;7.17;4.43;;;;;;;;;;4983402;28;20486;-63
2023/01/23 08:39:43;;;;;;;6.77;4.33;;;;;;;;;;4984679;28;20495;-62
2023/01/23 08:42:10;;;;;;;6.60;4.70;;;;;;;;;;4982971;28;20848;-62
2023/01/23 08:44:55;;;;;;;14.23;6.27;;;;;;;;;;4982011;28;20481;-63
2023/01/23 08:47:22;;;;;;;7.90;4.77;;;;;;;;;;4981144;28;21155;-63
2023/01/23 08:49:49;;;;;;;9.57;4.87;;;;;;;;;;4961753;28;20469;-63
2023/01/23 08:52:16;;;;;;;5.47;4.00;;;;;;;;;;4971919;28;20472;-63
2023/01/23 08:54:42;;;;;;;6.70;4.33;;;;;;;;;;4984760;28;20495;-62
2023/01/23 08:57:09;;;;;;;9.23;4.30;;;;;;;;;;4983851;28;20447;-63
2023/01/23 08:59:36;;;;;;;6.50;4.77;;;;;;;;;;4982622;28;20231;-63
2023/01/23 09:02:03;;;;;;;10.17;5.73;;;;;;;;;;4983497;28;20957;-64
2023/01/23 09:04:49;;;;;;;7.23;4.50;;;;;;;;;;4979433;28;20450;-64
2023/01/23 09:07:15;;;;;;;5.77;3.80;;;;;;;;;;4978749;28;21217;-64
2023/01/23 09:09:43;;;;;;;7.30;4.10;;;;;;;;;;4973921;28;20577;-65
2023/01/23 09:12:10;;;;;;;11.50;5.50;;;;;;;;;;4980393;28;20553;-65
2023/01/23 09:14:36;;;;;;;13.67;5.73;;;;;;;;;;4977144;28;26284;-65
2023/01/23 09:17:04;;;;;;;8.10;4.90;;;;;;;;;;4978424;28;20463;-65
2023/01/23 09:19:31;;;;;;;5.23;3.60;;;;;;;;;;4977890;28;20484;-65
2023/01/23 09:21:58;;;;;;;6.17;4.03;;;;;;;;;;4975420;28;20464;-64
2023/01/23 09:24:25;;;;;;;6.77;4.10;;;;;;;;;;4979402;28;20479;-64
2023/01/23 09:26:52;;;;;;;8.50;4.50;;;;;;;;;;4975847;28;20312;-64
2023/01/23 09:29:19;;;;;;;8.83;5.20;;;;;;;;;;4967331;28;20471;-65
2023/01/23 09:31:45;;;;;;;7.73;4.73;;;;;;;;;;4970998;28;20462;-65
2023/01/23 09:34:12;;;;;;;7.43;4.30;;;;;;;;;;4973129;28;20491;-64
2023/01/23 09:36:42;;;;;;;8.13;4.73;;;;;;;;;;4973963;28;20451;-64
2023/01/23 09:39:10;;;;;;;6.00;4.13;;;;;;;;;;4978485;28;20469;-63
2023/01/23 09:41:38;;;;;;;5.30;4.03;;;;;;;;;;4978199;28;20497;-64
2023/01/23 09:44:08;;;;;;;7.47;4.10;;;;;;;;;;4974475;28;20834;-64
2023/01/23 09:46:38;;;;;;;6.27;4.23;;;;;;;;;;4962730;28;20464;-63
2023/01/23 09:49:08;;;;;;;7.20;4.30;;;;;;;;;;4956972;28;20466;-63
2023/01/23 09:51:55;;;;;;;8.27;4.30;;;;;;;;;;4973904;28;20468;-63
2023/01/23 09:54:27;;;;;;;7.40;4.10;;;;;;;;;;4959791;28;20450;-62
2023/01/23 09:56:54;;;;;;;8.93;5.50;;;;;;;;;;4980630;28;20449;-63
2023/01/23 09:59:36;;;;;;;5.20;3.53;;;;;;;;;;4965192;28;20470;-63
2023/01/23 10:02:23;;;;;;;9.53;4.97;;;;;;;;;;4975717;28;20901;-64
2023/01/23 10:04:52;;;;;;;6.43;4.17;;;;;;;;;;4981803;28;20471;-64
2023/01/23 10:07:52;;;;;;;6.63;4.20;;;;;;;;;;4980402;28;20819;-65
2023/01/23 10:10:24;;;;;;;8.37;4.70;;;;;;;;;;4964048;28;20225;-64
2023/01/23 10:12:51;;;;;;;7.20;4.43;;;;;;;;;;4981855;28;20457;-64
2023/01/23 10:15:30;;;;;;;6.50;4.43;;;;;;;;;;4964934;28;20467;-65
2023/01/23 10:18:16;;;;;;;5.07;3.63;;;;;;;;;;4979325;28;20228;-64
2023/01/23 10:20:50;;;;;;;9.23;4.13;;;;;;;;;;4967776;28;20493;-64
2023/01/23 10:23:41;;;;;;;7.97;4.23;;;;;;;;;;4984444;28;20500;-64
2023/01/23 10:26:11;;;;;;;8.43;4.07;;;;;;;;;;4983364;28;20515;-64
2023/01/23 10:28:40;;;;;;;8.67;4.40;;;;;;;;;;4963531;28;20683;-64
2023/01/23 10:31:09;;;;;;;7.63;4.70;;;;;;;;;;4949365;28;20467;-64
2023/01/23 10:33:51;;;;;;;4.90;3.33;;;;;;;;;;4965032;28;20464;-64
2023/01/23 10:36:36;;;;;;;10.07;5.30;;;;;;;;;;4953732;28;20454;-64
2023/01/23 10:39:21;;;;;;;8.73;4.70;;;;;;;;;;4960133;28;20574;-64
2023/01/23 10:41:48;;;;;;;7.70;4.60;;;;;;;;;;4979027;28;20456;-64
2023/01/23 10:44:26;;;;;;;12.03;6.20;;;;;;;;;;4975988;28;20842;-64
2023/01/23 10:46:54;;;;;;;19.77;8.83;;;;;;;;;;4983616;28;20467;-64
2023/01/23 10:49:34;;;;;;;8.70;4.97;;;;;;;;;;4963678;28;20459;-66
2023/01/23 10:52:01;;;;;;;7.37;3.83;;;;;;;;;;4987707;28;20500;-66
2023/01/23 10:54:28;;;;;;;5.97;3.73;;;;;;;;;;4983731;28;20469;-66
2023/01/23 10:57:03;;;;;;;5.83;3.97;;;;;;;;;;4979505;28;20468;-65
2023/01/23 10:59:40;;;;;;;19.50;8.97;;;;;;;;;;4980440;28;20935;-64
2023/01/23 11:02:12;;;;;;;16.20;9.30;;;;;;;;;;4964637;28;20459;-65
2023/01/23 11:04:41;;;;;;;21.57;9.73;;;;;;;;;;4979831;28;20486;-65
2023/01/23 11:07:23;;;;;;;8.97;4.90;;;;;;;;;;4967472;28;20511;-65
2023/01/23 11:09:57;;;;;;;8.20;4.43;;;;;;;;;;4982033;28;20462;-65
2023/01/23 11:12:24;;;;;;;7.10;4.70;;;;;;;;;;4962255;28;20463;-65
2023/01/23 11:14:51;;;;;;;7.07;4.83;;;;;;;;;;4981663;28;20466;-65
2023/01/23 11:17:20;;;;;;;6.37;3.90;;;;;;;;;;4969199;28;20235;-65
2023/01/23 11:19:47;;;;;;;10.30;5.60;;;;;;;;;;4983733;28;20467;-65
2023/01/23 11:22:23;;;;;;;10.73;6.50;;;;;;;;;;4984126;28;21156;-65
2023/01/23 11:24:49;;;;;;;6.83;4.50;;;;;;;;;;4994540;28;20461;-65
2023/01/23 11:27:18;;;;;;;7.03;4.70;;;;;;;;;;4981530;28;20524;-65
2023/01/23 11:30:03;;;;;;;8.57;5.17;;;;;;;;;;4983234;28;20462;-65
2023/01/23 11:32:31;;;;;;;15.03;7.40;;;;;;;;;;4972945;28;20596;-65
2023/01/23 11:35:21;;;;;;;10.57;5.30;;;;;;;;;;4983509;28;20454;-65
2023/01/23 11:37:49;;;;;;;6.90;4.60;;;;;;;;;;4972406;28;20460;-65
2023/01/23 11:40:17;;;;;;;6.57;4.07;;;;;;;;;;4971619;28;21008;-64
2023/01/23 11:42:44;;;;;;;5.97;3.93;;;;;;;;;;4993667;28;20942;-65
2023/01/23 11:45:16;;;;;;;14.90;7.60;;;;;;;;;;4985696;28;20465;-65
2023/01/23 11:48:03;;;;;;;6.33;4.43;;;;;;;;;;4942025;28;20471;-65
2023/01/23 11:50:30;;;;;;;8.33;4.47;;;;;;;;;;4984520;28;20475;-64
2023/01/23 11:53:00;;;;;;;10.60;5.57;;;;;;;;;;4951731;28;20944;-65
2023/01/23 11:55:33;;;;;;;12.57;6.50;;;;;;;;;;4984766;28;20624;-65
2023/01/23 11:58:21;;;;;;;19.77;8.57;;;;;;;;;;4982598;28;20478;-65
2023/01/23 12:00:57;;;;;;;13.90;6.80;;;;;;;;;;4980420;28;20682;-65
2023/01/23 12:03:36;;;;;;;8.87;4.80;;;;;;;;;;4984393;28;20474;-65
2023/01/23 12:06:24;;;;;;;6.87;4.33;;;;;;;;;;4975321;28;20452;-66
2023/01/23 12:09:03;;;;;;;6.83;4.50;;;;;;;;;;4925005;28;46357;-65
2023/01/23 12:11:42;;;;;;;7.23;4.20;;;;;;;;;;4979937;28;20238;-65
2023/01/23 12:14:40;;;;;;;7.53;4.33;;;;;;;;;;4995006;28;20911;-65
2023/01/23 12:17:25;;;;;;;9.17;4.40;;;;;;;;;;4981836;28;20885;-65
2023/01/23 12:19:59;;;;;;;6.90;4.37;;;;;;;;;;4980818;28;20754;-65
2023/01/23 12:22:32;;;;;;;7.00;4.03;;;;;;;;;;4984135;28;20953;-65
2023/01/23 12:24:58;;;;;;;8.30;4.67;;;;;;;;;;4983599;28;20459;-65
2023/01/23 12:27:29;;;;;;;8.50;5.00;;;;;;;;;;4985239;28;20949;-65
2023/01/23 12:30:08;;;;;;;7.40;3.87;;;;;;;;;;4967294;28;20958;-65
2023/01/23 12:32:44;;;;;;;7.10;5.00;;;;;;;;;;4984269;28;20985;-65
2023/01/23 12:35:13;;;;;;;10.03;6.00;;;;;;;;;;4968739;28;20477;-65
2023/01/23 12:37:47;;;;;;;13.63;7.47;;;;;;;;;;4985500;28;20473;-65
2023/01/23 12:40:21;;;;;;;15.43;7.87;;;;;;;;;;4967178;28;20463;-65
2023/01/23 12:42:54;;;;;;;13.37;7.53;;;;;;;;;;4963508;28;20469;-65
2023/01/23 12:45:21;;;;;;;11.77;6.90;;;;;;;;;;4964763;28;20828;-65
2023/01/23 12:48:01;;;;;;;14.93;7.40;;;;;;;;;;4946747;28;20880;-65
2023/01/23 12:50:39;;;;;;;11.77;6.90;;;;;;;;;;4965083;28;20506;-65
2023/01/23 12:53:08;;;;;;;8.50;5.43;;;;;;;;;;4964532;28;20816;-65
2023/01/23 12:55:36;;;;;;;8.10;5.20;;;;;;;;;;4964692;28;20460;-65
2023/01/23 12:58:03;;;;;;;6.80;4.37;;;;;;;;;;4927126;28;20908;-65
2023/01/23 13:00:50;;;;;;;8.53;4.83;;;;;;;;;;4963054;28;20550;-65
2023/01/23 13:03:25;;;;;;;9.10;4.83;;;;;;;;;;4964983;28;20459;-65
2023/01/23 13:06:07;;;;;;;7.03;5.00;;;;;;;;;;4950233;28;20622;-65
2023/01/23 13:08:34;;;;;;;7.17;5.50;;;;;;;;;;4947411;28;20454;-65
2023/01/23 13:14:14;;;;;;;6.07;4.07;;;;;;;;;;4963563;28;20471;-65
2023/01/23 13:16:44;;;;;;;8.23;5.77;;;;;;;;;;4947373;28;20555;-65
2023/01/23 13:22:35;;;;;;;6.53;4.67;;;;;;;;;;4962997;28;20476;-65
2023/01/23 13:25:11;;;;;;;6.53;4.63;;;;;;;;;;4947194;28;20511;-65
2023/01/23 13:27:49;;;;;;;9.00;5.60;;;;;;;;;;4946841;28;20461;-65
2023/01/23 13:30:25;;;;;;;7.77;4.80;;;;;;;;;;4930899;28;20451;-65
2023/01/23 13:33:12;;;;;;;23.07;12.40;;;;;;;;;;4963035;28;20535;-65
2023/01/23 13:35:39;;;;;;;11.70;7.40;;;;;;;;;;4963648;28;20469;-65
2023/01/23 13:38:28;;;;;;;9.77;6.10;;;;;;;;;;4975030;28;20465;-65
2023/01/23 13:41:07;;;;;;;7.80;5.00;;;;;;;;;;4983063;28;20455;-65
2023/01/23 13:43:48;;;;;;;6.10;4.27;;;;;;;;;;4979283;28;20474;-65
2023/01/23 13:46:25;;;;;;;6.37;4.13;;;;;;;;;;4963464;28;20451;-65
2023/01/23 13:58:17;;;;;;;13.17;5.70;;;;;;;;;;4847889;29;20461;-65
2023/01/23 14:07:03;;;;;;;19.33;9.17;;;;;;;;;;4721234;30;20470;-65
2023/01/23 14:09:44;;;;;;;23.27;10.93;;;;;;;;;;4667841;30;20524;-65
2023/01/23 14:12:09;;;;;;;52.53;20.43;;;;;;;;;;4669884;30;20340;-65
2023/01/23 14:17:40;;;;;;;7.33;5.53;;;;;;;;;;4696142;30;20772;-65
2023/01/23 14:20:21;;;;;;;10.17;5.03;;;;;;;;;;4668677;30;21029;-65
2023/01/23 14:22:52;;;;;;;14.27;8.00;;;;;;;;;;4706736;30;20466;-65
2023/01/23 14:25:19;;;;;;;5.33;4.07;;;;;;;;;;4756068;30;20845;-65
2023/01/23 14:27:45;;;;;;;4.97;3.43;;;;;;;;;;4779185;29;20240;-65
2023/01/23 14:30:25;;;;;;;4.10;3.20;;;;;;;;;;4828269;29;20462;-65
2023/01/23 14:32:52;;;;;;;86.63;28.33;;;;;;;;;;4880328;29;21002;-65
2023/01/23 14:35:21;;;;;;;107.93;33.00;;;;;;;;;;4904324;29;20545;-65
2023/01/23 14:37:49;;;;;;;280.90;67.73;;;;;;;;;;4902399;29;20486;-65
2023/01/23 14:40:15;;;;;;;132.17;36.77;;;;;;;;;;4904241;29;20467;-65
2023/01/23 14:42:54;;;;;;;13.67;7.43;;;;;;;;;;4903849;29;20549;-65
2023/01/23 14:45:20;;;;;;;11.70;6.60;;;;;;;;;;4959099;28;20466;-65
2023/01/23 14:47:48;;;;;;;8.77;5.33;;;;;;;;;;4965120;28;21111;-65
2023/01/23 14:50:30;;;;;;;10.50;6.77;;;;;;;;;;4968393;28;20526;-65
2023/01/23 14:52:57;;;;;;;12.70;6.87;;;;;;;;;;4966798;28;20945;-65
2023/01/23 14:55:25;;;;;;;27.10;13.13;;;;;;;;;;4949295;28;20927;-65
2023/01/23 14:57:56;;;;;;;20.00;9.17;;;;;;;;;;4968145;28;20459;-65
2023/01/23 15:00:40;;;;;;;22.00;11.00;;;;;;;;;;4965929;28;21019;-65
2023/01/23 15:03:10;;;;;;;38.53;15.97;;;;;;;;;;4967666;28;20830;-65
2023/01/23 15:05:38;;;;;;;11.97;7.47;;;;;;;;;;4950031;28;20466;-65
2023/01/23 15:08:06;;;;;;;19.00;9.43;;;;;;;;;;4966818;28;20459;-65
2023/01/23 15:10:42;;;;;;;12.87;7.73;;;;;;;;;;4950978;28;20933;-65
2023/01/23 15:13:11;;;;;;;11.70;7.43;;;;;;;;;;4967461;28;20486;-65
2023/01/23 15:15:38;;;;;;;18.33;9.00;;;;;;;;;;4949039;28;20542;-65
2023/01/23 15:18:13;;;;;;;10.90;5.90;;;;;;;;;;4950398;28;20483;-65
2023/01/23 15:21:02;;;;;;;8.30;5.13;;;;;;;;;;4937676;28;21000;-65
2023/01/23 15:23:32;;;;;;;7.30;4.70;;;;;;;;;;4949407;28;20835;-65
2023/01/23 15:26:08;;;;;;;7.10;4.70;;;;;;;;;;4965944;28;20467;-65
2023/01/23 15:28:39;;;;;;;7.73;5.17;;;;;;;;;;4966186;28;20236;-65
2023/01/23 15:31:24;;;;;;;8.90;4.73;;;;;;;;;;4965914;28;20456;-65
2023/01/23 15:33:51;;;;;;;15.93;8.20;;;;;;;;;;4967056;28;20498;-65
2023/01/23 15:36:25;;;;;;;17.77;10.07;;;;;;;;;;4948914;28;20463;-65
2023/01/23 15:38:53;;;;;;;10.97;7.03;;;;;;;;;;4982252;28;20458;-65
2023/01/23 15:41:38;;;;;;;13.67;7.73;;;;;;;;;;4986931;28;21468;-65
2023/01/23 15:44:10;;;;;;;15.80;8.37;;;;;;;;;;4978093;28;20524;-65
2023/01/23 15:46:36;;;;;;;9.57;6.60;;;;;;;;;;4948679;28;21006;-65
2023/01/23 15:49:03;;;;;;;8.20;5.57;;;;;;;;;;4966951;28;20551;-65
2023/01/23 15:51:36;;;;;;;6.83;4.70;;;;;;;;;;4964538;28;20468;-65
2023/01/23 15:54:22;;;;;;;7.83;4.83;;;;;;;;;;4952119;28;20460;-65
2023/01/23 15:56:50;;;;;;;7.67;4.50;;;;;;;;;;4948945;28;20587;-65
2023/01/23 15:59:32;;;;;;;7.80;5.20;;;;;;;;;;4966791;28;20453;-65
2023/01/23 16:01:59;;;;;;;13.57;6.87;;;;;;;;;;4965588;28;20448;-65
2023/01/23 16:04:26;;;;;;;13.27;6.77;;;;;;;;;;4967006;28;20455;-65
2023/01/23 16:06:52;;;;;;;14.83;7.43;;;;;;;;;;4965043;28;20950;-65
2023/01/23 16:09:23;;;;;;;19.47;13.20;;;;;;;;;;4966889;28;20460;-65
2023/01/23 16:11:50;;;;;;;16.40;11.47;;;;;;;;;;4965376;28;20444;-65